Time;durP1;ratioP1;P1;durP2;ratioP2;P2;SDS_P1;SDS_P2;PMS_P1;PMS_P2;Temp;Humidity;BMP_temperature;BMP_pressure;BME280_temperature;BME280_humidity;BME280_pressure;Samples;Min_cycle;Max_cycle;Signal;HPM_P1;HPM_P2
2023/08/01 00:00:53;;;;;;;7.90;2.10;;;;;;;26.56;37.33;99112.50;4470861;32;34024;-64
2023/08/01 00:03:21;;;;;;;4.85;2.10;;;;;;;26.54;37.38;99115.50;4485208;32;33638;-65
2023/08/01 00:05:49;;;;;;;3.67;2.00;;;;;;;26.55;37.37;99116.31;4485257;32;34546;-64
2023/08/01 00:08:16;;;;;;;4.72;1.87;;;;;;;26.55;37.34;99110.84;4484999;32;34602;-64
2023/08/01 00:10:44;;;;;;;5.15;2.10;;;;;;;26.54;37.38;99109.22;4485295;32;34058;-64
2023/08/01 00:13:11;;;;;;;4.18;1.73;;;;;;;26.54;37.31;99111.94;4471299;32;33303;-64
2023/08/01 00:15:39;;;;;;;3.80;1.90;;;;;;;26.54;37.33;99120.16;4484839;32;33105;-63
2023/08/01 00:18:14;;;;;;;8.55;2.10;;;;;;;26.52;37.44;99114.09;4485036;32;34688;-65
2023/08/01 00:20:44;;;;;;;4.45;2.10;;;;;;;26.51;37.41;99112.47;4484904;32;33974;-64
2023/08/01 00:23:13;;;;;;;4.47;2.22;;;;;;;26.52;37.43;99111.38;4485340;32;33563;-64
2023/08/01 00:25:42;;;;;;;4.40;1.80;;;;;;;26.48;37.60;99113.78;4485031;32;34628;-64
2023/08/01 00:28:10;;;;;;;5.18;2.17;;;;;;;26.48;37.71;99110.25;4484856;32;33550;-65
2023/08/01 00:30:39;;;;;;;5.30;2.28;;;;;;;26.47;37.54;99114.88;4484795;32;34223;-64
2023/08/01 00:33:08;;;;;;;4.40;2.37;;;;;;;26.47;37.43;99111.34;4485030;32;34145;-64
2023/08/01 00:35:35;;;;;;;5.40;2.00;;;;;;;26.47;37.34;99112.16;4484470;32;34024;-63
2023/08/01 00:38:03;;;;;;;5.30;2.08;;;;;;;26.44;37.36;99102.59;4485229;32;33912;-64
2023/08/01 00:40:31;;;;;;;7.78;2.10;;;;;;;26.44;37.36;99107.22;4484973;32;34546;-64
2023/08/01 00:42:59;;;;;;;5.47;2.37;;;;;;;26.43;37.42;99102.81;4470652;32;34169;-64
2023/08/01 00:45:27;;;;;;;5.35;1.80;;;;;;;26.43;37.48;99102.81;4485154;32;33920;-64
2023/08/01 00:47:55;;;;;;;4.68;2.25;;;;;;;26.43;37.47;99100.09;4458167;32;33800;-64
2023/08/01 00:50:23;;;;;;;5.80;2.53;;;;;;;26.44;37.43;99101.75;4457455;32;33760;-62
2023/08/01 00:52:50;;;;;;;5.07;2.20;;;;;;;26.41;37.44;99094.84;4484961;32;33433;-64
2023/08/01 00:55:19;;;;;;;3.83;1.70;;;;;;;26.41;37.54;99091.31;4457776;32;35089;-64
2023/08/01 00:57:47;;;;;;;5.37;2.00;;;;;;;26.39;37.57;99088.00;4470685;32;33521;-64
2023/08/01 01:00:14;;;;;;;3.67;1.75;;;;;;;26.39;37.56;99077.91;4470600;32;33883;-63
2023/08/01 01:02:43;;;;;;;7.12;2.10;;;;;;;26.39;37.64;99077.03;4484696;32;33455;-63
2023/08/01 01:05:12;;;;;;;4.57;2.15;;;;;;;26.38;37.73;99072.66;4484723;32;33639;-64
2023/08/01 01:07:40;;;;;;;7.00;2.05;;;;;;;26.36;37.71;99067.47;4464488;32;34061;-64
2023/08/01 01:10:09;;;;;;;4.15;1.95;;;;;;;26.35;37.76;99068.56;4454814;32;33674;-64
2023/08/01 01:12:37;;;;;;;3.55;2.10;;;;;;;26.35;37.70;99070.47;4469055;32;33418;-64
2023/08/01 01:15:06;;;;;;;5.28;2.12;;;;;;;26.35;37.75;99076.78;4468937;32;34058;-63
2023/08/01 01:17:34;;;;;;;5.05;2.22;;;;;;;26.32;37.73;99068.25;4468893;32;34011;-64
2023/08/01 01:20:03;;;;;;;3.85;1.80;;;;;;;26.31;37.60;99074.81;4468913;32;34429;-64
2023/08/01 01:22:31;;;;;;;4.95;2.30;;;;;;;26.28;37.67;99078.06;4468892;32;33359;-61
2023/08/01 01:24:59;;;;;;;5.22;2.08;;;;;;;26.28;37.69;99067.12;4454832;32;34550;-64
2023/08/01 01:27:27;;;;;;;3.65;1.90;;;;;;;26.29;37.75;99074.25;4454994;32;33759;-64
2023/08/01 01:29:55;;;;;;;4.82;1.95;;;;;;;26.27;37.82;99066.31;4454794;32;33620;-65
2023/08/01 01:32:22;;;;;;;3.53;2.12;;;;;;;26.26;37.85;99064.69;4454830;32;33439;-64
2023/08/01 01:34:50;;;;;;;5.15;1.85;;;;;;;26.25;37.93;99057.53;4454787;32;33948;-64
2023/08/01 01:37:17;;;;;;;4.18;2.00;;;;;;;26.25;37.88;99059.44;4468909;32;34681;-64
2023/08/01 01:39:45;;;;;;;4.50;2.05;;;;;;;26.24;37.94;99055.91;4468590;32;34769;-64
2023/08/01 01:42:13;;;;;;;4.30;1.75;;;;;;;26.23;37.99;99047.97;4468789;32;33551;-64
2023/08/01 01:44:40;;;;;;;5.20;2.25;;;;;;;26.23;37.86;99053.44;4468870;32;33944;-64
2023/08/01 01:47:08;;;;;;;4.78;2.00;;;;;;;26.22;37.81;99057.25;4468681;32;34589;-65
2023/08/01 01:49:36;;;;;;;5.00;2.30;;;;;;;26.21;37.88;99056.44;4468666;32;33487;-64
2023/08/01 01:52:04;;;;;;;3.92;1.90;;;;;;;26.21;37.80;99050.97;4468169;32;34079;-64
2023/08/01 01:54:32;;;;;;;4.03;1.95;;;;;;;26.21;37.74;99050.97;4468918;32;34022;-65
2023/08/01 01:56:59;;;;;;;4.95;2.08;;;;;;;26.19;37.73;99051.22;4467999;32;34023;-64
2023/08/01 01:59:27;;;;;;;4.10;2.03;;;;;;;26.19;37.81;99048.47;4468728;32;33435;-64
2023/08/01 02:01:54;;;;;;;4.30;2.00;;;;;;;26.19;37.81;99043.00;4468180;32;33145;-64
2023/08/01 02:04:22;;;;;;;5.78;2.37;;;;;;;26.17;37.78;99039.72;4468618;32;34784;-64
2023/08/01 02:06:50;;;;;;;6.05;2.12;;;;;;;26.18;37.72;99038.63;4470077;31;33936;-63
2023/08/01 02:09:17;;;;;;;5.78;2.22;;;;;;;26.17;37.88;99038.91;4500245;31;34544;-64
2023/08/01 02:11:45;;;;;;;5.37;2.20;;;;;;;26.15;38.02;99025.47;4500302;31;33244;-63
2023/08/01 02:14:13;;;;;;;4.93;2.00;;;;;;;26.15;38.04;99028.22;4500297;31;34818;-63
2023/08/01 02:16:41;;;;;;;4.47;1.98;;;;;;;26.15;37.98;99027.38;4485971;31;33794;-63
2023/08/01 02:19:09;;;;;;;4.60;2.22;;;;;;;26.13;38.04;99030.41;4500295;31;34580;-63
2023/08/01 02:21:37;;;;;;;4.53;2.03;;;;;;;26.13;38.04;99024.94;4500085;31;33297;-62
2023/08/01 02:24:04;;;;;;;3.30;1.90;;;;;;;26.12;38.01;99020.56;4499954;31;33697;-63
2023/08/01 02:26:32;;;;;;;6.37;2.08;;;;;;;26.11;37.98;99021.66;4499995;31;33589;-63
2023/08/01 02:29:00;;;;;;;6.65;2.30;;;;;;;26.12;37.96;99027.94;4499841;31;34055;-62
2023/08/01 02:31:27;;;;;;;4.75;2.20;;;;;;;26.10;37.95;99025.44;4499445;31;33079;-61
2023/08/01 02:33:55;;;;;;;5.93;2.22;;;;;;;26.11;37.97;99029.84;4499891;31;34522;-62
2023/08/01 02:36:22;;;;;;;5.82;2.40;;;;;;;26.10;37.98;99021.91;4485683;31;33434;-62
2023/08/01 02:38:50;;;;;;;4.95;2.05;;;;;;;26.10;37.97;99014.50;4499311;31;33466;-63
2023/08/01 02:41:17;;;;;;;4.32;2.08;;;;;;;26.09;38.01;99012.06;4499784;31;33455;-62
2023/08/01 02:43:45;;;;;;;4.80;2.30;;;;;;;26.08;38.04;99011.22;4499604;31;34709;-62
2023/08/01 02:46:12;;;;;;;5.93;2.30;;;;;;;26.07;38.02;99017.78;4499654;31;33718;-62
2023/08/01 02:48:40;;;;;;;5.55;1.98;;;;;;;26.06;38.06;99015.31;4499692;31;34537;-63
2023/08/01 02:51:11;;;;;;;5.50;2.08;;;;;;;26.07;38.03;99019.72;4499383;31;34132;-63
2023/08/01 02:53:41;;;;;;;4.87;2.00;;;;;;;26.05;38.00;99017.22;4499543;31;34626;-63
2023/08/01 02:56:09;;;;;;;5.22;2.10;;;;;;;26.03;38.07;99016.66;4499541;31;34804;-63
2023/08/01 02:58:37;;;;;;;6.43;2.22;;;;;;;26.03;38.09;99013.13;4499294;31;33732;-63
2023/08/01 03:01:12;;;;;;;4.95;2.20;;;;;;;26.01;38.17;99015.28;4499461;31;32974;-63
2023/08/01 03:03:39;;;;;;;6.72;2.17;;;;;;;26.00;38.25;99019.91;4499555;31;34674;-63
2023/08/01 03:06:08;;;;;;;5.00;2.03;;;;;;;25.99;38.25;99007.34;4485341;31;34652;-63
2023/08/01 03:08:35;;;;;;;5.25;2.00;;;;;;;25.98;38.23;99004.88;4487055;31;34562;-63
2023/08/01 03:11:03;;;;;;;6.37;2.30;;;;;;;25.98;38.18;99002.97;4483565;32;33163;-63
2023/08/01 03:13:30;;;;;;;3.72;2.25;;;;;;;25.98;38.21;99010.34;4483308;32;34000;-62
2023/08/01 03:15:58;;;;;;;5.90;2.00;;;;;;;25.97;38.19;99012.22;4483722;32;33975;-62
2023/08/01 03:18:26;;;;;;;6.20;2.35;;;;;;;25.95;38.23;99015.22;4483350;32;34228;-62
2023/08/01 03:20:53;;;;;;;4.28;2.35;;;;;;;25.94;38.23;99010.03;4483291;32;34476;-62
2023/08/01 03:23:20;;;;;;;4.35;2.22;;;;;;;25.93;38.23;99003.75;4482219;32;33931;-62
2023/08/01 03:25:48;;;;;;;5.18;2.25;;;;;;;25.91;38.27;99000.44;4482093;32;34443;-62
2023/08/01 03:28:16;;;;;;;6.32;1.98;;;;;;;25.93;38.31;99000.19;4483270;32;33828;-63
2023/08/01 03:30:43;;;;;;;5.43;2.08;;;;;;;25.92;38.28;99001.25;4483043;32;33241;-63
2023/08/01 03:33:11;;;;;;;3.67;2.05;;;;;;;25.92;38.26;99002.09;4483251;32;34092;-62
2023/08/01 03:35:38;;;;;;;5.28;2.22;;;;;;;25.91;38.26;99002.34;4483147;32;34531;-62
2023/08/01 03:38:06;;;;;;;3.33;1.92;;;;;;;25.90;38.29;98995.25;4483366;32;34071;-62
2023/08/01 03:40:34;;;;;;;4.43;2.10;;;;;;;25.89;38.28;98999.06;4483174;32;33820;-63
2023/08/01 03:43:01;;;;;;;6.70;2.25;;;;;;;25.88;38.29;98997.41;4483050;32;34330;-63
2023/08/01 03:45:29;;;;;;;3.72;1.70;;;;;;;25.88;38.29;98998.25;4483005;32;34658;-63
2023/08/01 03:47:56;;;;;;;4.20;2.12;;;;;;;25.87;38.32;98993.84;4481759;32;33628;-63
2023/08/01 03:50:24;;;;;;;5.28;2.28;;;;;;;25.86;38.32;98994.94;4482971;32;32966;-63
2023/08/01 03:52:51;;;;;;;4.47;2.35;;;;;;;25.85;38.41;98993.31;4483600;32;33498;-63
2023/08/01 03:55:19;;;;;;;5.72;2.05;;;;;;;25.85;38.43;98993.31;4485130;32;34011;-62
2023/08/01 03:57:47;;;;;;;5.28;2.37;;;;;;;25.84;38.48;98994.37;4485364;32;34126;-62
2023/08/01 04:00:14;;;;;;;6.43;2.33;;;;;;;25.84;38.46;98991.66;4485331;32;34340;-63
2023/08/01 04:02:44;;;;;;;5.93;2.50;;;;;;;25.83;38.44;98994.63;4485318;32;33832;-63
2023/08/01 04:05:15;;;;;;;4.62;2.08;;;;;;;25.83;38.45;98986.44;4485219;32;34502;-61
2023/08/01 04:07:42;;;;;;;4.75;2.05;;;;;;;25.82;38.51;98991.06;4486494;31;34696;-62
2023/08/01 04:10:10;;;;;;;8.85;2.70;;;;;;;25.82;38.62;98990.25;4500855;31;33423;-61
2023/08/01 04:12:38;;;;;;;5.82;2.35;;;;;;;25.81;38.63;98986.69;4501128;31;33470;-61
2023/08/01 04:15:06;;;;;;;7.00;2.20;;;;;;;25.81;38.65;98989.44;4500954;31;33663;-61
2023/08/01 04:17:34;;;;;;;6.45;2.40;;;;;;;25.81;38.66;98983.16;4500828;31;34593;-62
2023/08/01 04:20:01;;;;;;;5.78;2.35;;;;;;;25.81;38.68;98983.97;4500871;31;34161;-61
2023/08/01 04:22:29;;;;;;;4.97;2.35;;;;;;;25.81;38.68;98991.34;4500816;31;34330;-62
2023/08/01 04:24:57;;;;;;;7.53;2.75;;;;;;;25.80;38.72;98987.78;4500844;31;33898;-61
2023/08/01 04:27:24;;;;;;;6.35;2.62;;;;;;;25.81;38.78;98991.34;4487876;31;33904;-61
2023/08/01 04:29:52;;;;;;;5.43;2.42;;;;;;;25.81;38.85;98983.16;4483902;32;33397;-63
2023/08/01 04:32:20;;;;;;;5.87;2.75;;;;;;;25.81;38.85;98980.41;4483366;32;33758;-61
2023/08/01 04:34:48;;;;;;;5.28;2.65;;;;;;;25.81;38.86;98991.34;4484957;32;34733;-63
2023/08/01 04:37:15;;;;;;;5.10;2.50;;;;;;;25.81;38.88;98988.63;4485401;32;33913;-63
2023/08/01 04:39:43;;;;;;;6.03;2.47;;;;;;;25.80;38.91;98985.06;4484604;32;33458;-63
2023/08/01 04:42:11;;;;;;;5.87;2.40;;;;;;;25.81;38.93;98983.16;4484476;32;33641;-62
2023/08/01 04:44:38;;;;;;;5.68;2.45;;;;;;;25.81;38.98;98983.97;4484929;32;34130;-62
2023/08/01 04:47:06;;;;;;;5.28;2.58;;;;;;;25.81;39.01;98972.22;4483569;32;34182;-61
2023/08/01 04:49:33;;;;;;;9.90;3.10;;;;;;;25.81;39.08;98978.50;4485233;32;33075;-61
2023/08/01 04:52:01;;;;;;;6.93;2.65;;;;;;;25.81;39.11;98974.94;4484794;32;34764;-62
2023/08/01 04:54:29;;;;;;;6.32;2.58;;;;;;;25.82;39.13;98976.59;4484727;32;33918;-61
2023/08/01 04:56:56;;;;;;;4.22;2.55;;;;;;;25.82;39.17;98971.13;4484783;32;34339;-61
2023/08/01 04:59:24;;;;;;;4.53;2.55;;;;;;;25.82;39.19;98958.28;4484869;32;33523;-63
2023/08/01 05:01:52;;;;;;;6.65;2.75;;;;;;;25.81;39.24;98962.13;4484373;32;34586;-61
2023/08/01 05:04:19;;;;;;;6.50;2.70;;;;;;;25.82;39.29;98960.19;4485028;32;33996;-61
2023/08/01 05:06:47;;;;;;;6.20;2.50;;;;;;;25.82;39.30;98958.28;4484648;31;34450;-62
2023/08/01 05:09:15;;;;;;;10.23;2.80;;;;;;;25.82;39.38;98954.72;4500519;31;34112;-62
2023/08/01 05:11:47;;;;;;;7.15;2.35;;;;;;;25.84;39.39;98964.31;4500534;31;33912;-65
2023/08/01 05:14:15;;;;;;;7.60;3.15;;;;;;;25.83;39.46;98964.56;4486357;31;34733;-61
2023/08/01 05:16:43;;;;;;;5.90;2.58;;;;;;;25.84;39.51;98960.78;4500568;31;33693;-62
2023/08/01 05:19:11;;;;;;;4.20;2.40;;;;;;;25.83;39.60;98970.84;4500798;31;33378;-62
2023/08/01 05:21:38;;;;;;;8.32;3.00;;;;;;;25.85;39.67;98959.69;4485851;31;32773;-61
2023/08/01 05:24:06;;;;;;;6.32;2.40;;;;;;;25.85;39.72;98959.69;4500772;31;34153;-62
2023/08/01 05:26:33;;;;;;;4.65;2.45;;;;;;;25.85;39.75;98967.88;4500454;31;34679;-61
2023/08/01 05:29:01;;;;;;;5.97;2.83;;;;;;;25.86;39.85;98958.59;4500390;31;33612;-61
2023/08/01 05:31:30;;;;;;;6.90;2.72;;;;;;;25.86;39.84;98955.84;4500341;31;33786;-61
2023/08/01 05:33:58;;;;;;;6.45;2.70;;;;;;;25.86;39.90;98958.59;4500722;31;33844;-62
2023/08/01 05:36:25;;;;;;;5.70;2.62;;;;;;;25.86;39.97;98959.41;4500504;31;34006;-61
2023/08/01 05:38:53;;;;;;;8.82;3.15;;;;;;;25.87;40.03;98966.53;4500477;31;34156;-62
2023/08/01 05:41:21;;;;;;;8.98;2.95;;;;;;;25.87;40.03;98963.78;4472914;31;32543;-62
2023/08/01 05:43:49;;;;;;;7.05;3.37;;;;;;;25.88;40.13;98970.91;4500212;31;33883;-63
2023/08/01 05:46:16;;;;;;;8.07;3.37;;;;;;;25.89;40.15;98971.75;4486282;31;34158;-62
2023/08/01 05:48:44;;;;;;;14.85;3.15;;;;;;;25.89;40.21;98966.28;4473183;31;33938;-61
2023/08/01 05:51:11;;;;;;;5.95;2.95;;;;;;;25.89;40.25;98963.53;4500185;31;33407;-61
2023/08/01 05:53:43;;;;;;;7.82;3.25;;;;;;;25.91;40.38;98967.66;4500160;31;33871;-62
2023/08/01 05:56:10;;;;;;;9.60;3.65;;;;;;;25.91;40.45;98962.19;4500228;31;34460;-62
2023/08/01 05:58:38;;;;;;;7.15;3.40;;;;;;;25.92;40.39;98957.53;4500108;31;33872;-63
2023/08/01 06:01:05;;;;;;;6.80;3.00;;;;;;;25.93;40.49;98960.03;4485958;31;33761;-61
2023/08/01 06:03:33;;;;;;;8.52;3.50;;;;;;;25.94;40.53;98960.84;4500228;31;34145;-62
2023/08/01 06:06:01;;;;;;;7.25;3.47;;;;;;;25.93;40.72;98957.28;4499990;31;33497;-61
2023/08/01 06:08:28;;;;;;;7.62;3.42;;;;;;;25.95;40.87;98965.22;4488506;31;33836;-61
2023/08/01 06:10:57;;;;;;;8.07;3.75;;;;;;;25.93;40.98;98965.50;4484278;32;34670;-62
2023/08/01 06:13:25;;;;;;;5.95;3.33;;;;;;;25.94;41.24;98966.31;4482693;32;34443;-61
2023/08/01 06:15:52;;;;;;;7.97;3.25;;;;;;;25.94;41.28;98963.56;4483730;32;33683;-62
2023/08/01 06:18:21;;;;;;;7.00;2.70;;;;;;;25.94;41.47;98958.94;4484251;32;33361;-61
2023/08/01 06:20:48;;;;;;;6.90;3.08;;;;;;;25.95;41.52;98962.47;4469818;32;33915;-62
2023/08/01 06:23:16;;;;;;;5.60;3.03;;;;;;;25.94;41.69;98960.84;4484218;32;34722;-62
2023/08/01 06:25:44;;;;;;;11.75;3.40;;;;;;;25.94;41.55;98958.09;4484173;32;34063;-62
2023/08/01 06:28:11;;;;;;;6.20;3.40;;;;;;;25.96;41.68;98961.38;4484000;32;33497;-62
2023/08/01 06:30:39;;;;;;;8.52;3.35;;;;;;;25.97;41.68;98962.19;4481200;32;86020;-62
2023/08/01 06:33:07;;;;;;;6.68;2.87;;;;;;;25.97;41.75;98956.75;4484125;32;34702;-62
2023/08/01 06:35:34;;;;;;;7.12;2.78;;;;;;;25.99;41.75;98958.13;4483738;32;34110;-62
2023/08/01 06:38:02;;;;;;;8.50;3.33;;;;;;;25.99;41.77;98951.84;4484096;32;33158;-62
2023/08/01 06:40:29;;;;;;;6.70;3.00;;;;;;;26.00;41.77;98954.31;4484101;32;33583;-61
2023/08/01 06:42:57;;;;;;;8.43;3.03;;;;;;;26.01;41.84;98950.47;4483772;32;33793;-61
2023/08/01 06:45:24;;;;;;;5.57;3.03;;;;;;;26.02;41.89;98948.56;4484257;32;33650;-62
2023/08/01 06:47:52;;;;;;;6.50;3.25;;;;;;;26.03;41.95;98950.25;4483919;32;34050;-63
2023/08/01 06:50:19;;;;;;;7.95;3.28;;;;;;;26.05;41.93;98953.50;4483684;32;33822;-63
2023/08/01 06:52:47;;;;;;;9.57;3.05;;;;;;;26.06;41.93;98950.50;4483801;32;33524;-63
2023/08/01 06:55:15;;;;;;;6.72;2.78;;;;;;;26.09;42.12;98941.78;4483846;32;33708;-63
2023/08/01 06:57:42;;;;;;;6.75;2.90;;;;;;;26.07;42.11;98943.97;4483759;32;32571;-63
2023/08/01 07:00:11;;;;;;;9.05;3.22;;;;;;;26.09;42.00;98943.69;4483722;32;34705;-63
2023/08/01 07:02:39;;;;;;;10.32;3.05;;;;;;;26.11;42.07;98944.25;4483561;32;34027;-61
2023/08/01 07:05:06;;;;;;;6.15;3.28;;;;;;;26.12;42.12;98943.19;4483635;32;34399;-62
2023/08/01 07:07:34;;;;;;;8.23;3.08;;;;;;;26.12;42.10;98944.00;4483499;32;33742;-61
2023/08/01 07:10:02;;;;;;;8.13;3.50;;;;;;;26.13;42.14;98939.34;4483571;32;34124;-61
2023/08/01 07:12:29;;;;;;;7.85;3.28;;;;;;;26.15;42.14;98939.91;4483531;32;34668;-61
2023/08/01 07:14:57;;;;;;;11.52;3.40;;;;;;;26.16;42.31;98936.91;4483586;32;34563;-61
2023/08/01 07:17:28;;;;;;;9.38;4.00;;;;;;;26.18;42.51;98933.91;4483291;32;33393;-63
2023/08/01 07:19:56;;;;;;;7.40;3.97;;;;;;;26.20;42.75;98929.81;4483467;32;33880;-63
2023/08/01 07:22:23;;;;;;;9.55;3.83;;;;;;;26.20;42.56;98927.06;4483533;32;33685;-63
2023/08/01 07:24:54;;;;;;;8.27;3.72;;;;;;;26.23;42.55;98933.94;4483072;32;34154;-61
2023/08/01 07:27:22;;;;;;;6.65;3.40;;;;;;;26.24;42.57;98935.56;4485491;32;33984;-62
2023/08/01 07:29:49;;;;;;;12.77;3.55;;;;;;;26.26;42.52;98936.16;4485725;32;34083;-61
2023/08/01 07:32:17;;;;;;;11.07;3.62;;;;;;;26.28;42.67;98928.50;4485107;32;33799;-62
2023/08/01 07:34:45;;;;;;;9.48;3.75;;;;;;;26.30;42.66;98925.47;4485478;32;33490;-61
2023/08/01 07:37:12;;;;;;;11.98;4.15;;;;;;;26.30;42.74;98920.00;4485451;32;34246;-61
2023/08/01 07:39:40;;;;;;;10.82;4.43;;;;;;;26.32;42.71;98915.12;4485223;32;33619;-61
2023/08/01 07:42:07;;;;;;;7.50;3.45;;;;;;;26.33;42.78;98917.56;4485410;32;34051;-64
2023/08/01 07:44:35;;;;;;;9.93;3.80;;;;;;;26.35;42.79;98914.59;4485608;32;33829;-62
2023/08/01 07:47:03;;;;;;;6.97;3.55;;;;;;;26.36;42.89;98914.31;4485228;32;33655;-60
2023/08/01 07:49:31;;;;;;;8.35;3.83;;;;;;;26.39;42.92;98911.06;4485233;32;35088;-61
2023/08/01 07:51:58;;;;;;;7.53;3.53;;;;;;;26.44;42.98;98910.28;4471220;32;32949;-61
2023/08/01 07:54:26;;;;;;;8.68;3.75;;;;;;;26.45;42.92;98907.25;4484674;32;34005;-60
2023/08/01 07:56:54;;;;;;;10.95;4.32;;;;;;;26.49;42.96;98904.81;4485279;32;33536;-61
2023/08/01 07:59:21;;;;;;;7.82;3.72;;;;;;;26.56;42.90;98899.91;4485109;32;34012;-61
2023/08/01 08:01:49;;;;;;;10.73;4.18;;;;;;;26.58;42.91;98886.78;4470915;32;34671;-62
2023/08/01 08:04:17;;;;;;;7.32;3.47;;;;;;;26.61;42.88;98888.97;4485108;32;34521;-63
2023/08/01 08:06:44;;;;;;;7.93;3.45;;;;;;;26.63;42.89;98884.06;4484662;32;33414;-60
2023/08/01 08:09:12;;;;;;;12.05;3.80;;;;;;;26.61;42.85;98883.50;4466256;32;34555;-59
2023/08/01 08:11:40;;;;;;;9.10;3.95;;;;;;;26.63;42.79;98897.75;4482352;32;34703;-61
2023/08/01 08:14:07;;;;;;;9.05;3.70;;;;;;;26.64;42.71;98887.63;4484477;32;33899;-63
2023/08/01 08:16:35;;;;;;;8.68;3.53;;;;;;;26.64;42.63;98885.72;4484303;32;33789;-63
2023/08/01 08:19:03;;;;;;;8.02;4.03;;;;;;;26.64;42.58;98882.16;4470086;32;34074;-63
2023/08/01 08:21:31;;;;;;;8.18;3.67;;;;;;;26.64;42.52;98882.16;4483601;32;32689;-63
2023/08/01 08:23:59;;;;;;;9.48;3.83;;;;;;;26.63;42.50;98884.06;4484562;32;34606;-69
2023/08/01 08:26:27;;;;;;;8.38;4.05;;;;;;;26.65;42.45;98889.25;4484814;32;34173;-68
2023/08/01 08:28:54;;;;;;;9.27;4.00;;;;;;;26.63;42.43;98881.34;4485068;32;33570;-61
2023/08/01 08:31:22;;;;;;;8.52;3.85;;;;;;;26.62;42.46;98885.12;4484621;32;34048;-63
2023/08/01 08:33:50;;;;;;;8.80;3.78;;;;;;;26.63;42.49;98888.72;4484913;32;33780;-62
2023/08/01 08:36:17;;;;;;;9.00;3.70;;;;;;;26.66;42.58;98874.47;4484923;32;32869;-69
2023/08/01 08:38:45;;;;;;;6.43;3.55;;;;;;;26.64;42.59;98877.50;4470130;32;33772;-62
2023/08/01 08:41:14;;;;;;;8.10;3.70;;;;;;;26.66;42.58;98875.31;4484876;32;33574;-62
2023/08/01 08:43:41;;;;;;;9.35;3.80;;;;;;;26.66;42.57;98871.75;4457706;32;33875;-61
2023/08/01 08:46:09;;;;;;;9.02;4.18;;;;;;;26.68;42.62;98880.53;4484903;32;33116;-65
2023/08/01 08:48:37;;;;;;;7.90;3.65;;;;;;;26.70;42.69;98875.59;4484885;32;33332;-63
2023/08/01 08:51:04;;;;;;;7.25;3.47;;;;;;;26.69;42.63;98866.56;4458054;32;33613;-63
2023/08/01 08:53:35;;;;;;;7.43;4.20;;;;;;;26.69;42.51;98874.78;4470682;32;33478;-66
2023/08/01 08:56:03;;;;;;;8.38;3.55;;;;;;;26.72;42.50;98867.94;4470809;32;33310;-66
2023/08/01 08:58:33;;;;;;;7.20;3.45;;;;;;;26.71;42.50;98856.16;4470552;32;34738;-66
2023/08/01 09:01:00;;;;;;;5.87;3.00;;;;;;;26.73;42.48;98863.28;4470981;32;34482;-65
2023/08/01 09:03:28;;;;;;;5.82;3.03;;;;;;;26.73;42.42;98841.41;4484729;32;33752;-61
2023/08/01 09:06:14;;;;;;;10.30;3.90;;;;;;;26.75;42.42;98850.16;4470416;32;33533;-61
2023/08/01 09:08:48;;;;;;;8.02;3.65;;;;;;;26.77;42.33;98853.47;4458340;32;33837;-65
2023/08/01 09:11:15;;;;;;;9.15;3.50;;;;;;;26.76;42.28;98849.06;4442464;32;33986;-62
2023/08/01 09:13:43;;;;;;;6.97;3.35;;;;;;;26.76;42.25;98849.06;4468841;32;33840;-62
2023/08/01 09:16:11;;;;;;;5.72;3.20;;;;;;;26.76;42.23;98843.56;4469117;32;33435;-61
2023/08/01 09:18:48;;;;;;;7.03;3.58;;;;;;;26.78;42.32;98844.16;4455157;32;33989;-63
2023/08/01 09:21:20;;;;;;;6.28;3.12;;;;;;;26.85;42.29;98836.47;4480417;32;33973;-62
2023/08/01 09:23:47;;;;;;;6.30;3.37;;;;;;;26.82;42.34;98829.66;4483885;32;33779;-63
2023/08/01 09:26:15;;;;;;;6.12;3.20;;;;;;;26.82;42.36;98826.91;4484000;32;33197;-63
2023/08/01 09:28:43;;;;;;;5.40;2.80;;;;;;;26.80;42.41;98820.88;4477025;32;34001;-61
2023/08/01 09:31:11;;;;;;;6.47;3.53;;;;;;;26.83;42.36;98814.84;4483722;32;34022;-65
2023/08/01 09:33:41;;;;;;;7.12;3.53;;;;;;;26.83;42.42;98820.34;4483809;32;34531;-64
2023/08/01 09:36:09;;;;;;;6.53;3.00;;;;;;;26.87;42.30;98818.69;4484190;32;33559;-64
2023/08/01 09:38:37;;;;;;;6.10;3.58;;;;;;;26.88;42.23;98811.31;4483801;32;33983;-62
2023/08/01 09:41:04;;;;;;;6.78;3.30;;;;;;;26.88;41.91;98812.13;4484045;32;34734;-62
2023/08/01 09:43:36;;;;;;;6.70;3.47;;;;;;;26.89;41.70;98819.22;4483885;32;34667;-65
2023/08/01 09:46:06;;;;;;;13.85;3.37;;;;;;;26.93;41.65;98809.38;4474064;32;33203;-61
2023/08/01 09:48:34;;;;;;;;;;;;;;;26.94;41.80;98812.94;4483369;32;34600;-63
2023/08/01 09:51:08;;;;;;;9.27;3.42;;;;;;;27.03;41.56;98814.03;4483584;32;35182;-61
2023/08/01 09:53:47;;;;;;;9.32;3.83;;;;;;;26.98;41.63;98805.81;4463659;32;34615;-65
2023/08/01 09:56:16;;;;;;;7.07;3.15;;;;;;;26.95;41.69;98807.22;4470139;32;32702;-63
2023/08/01 09:58:44;;;;;;;7.20;3.58;;;;;;;26.94;41.51;98802.00;4461519;32;33513;-62
2023/08/01 10:01:18;;;;;;;8.35;3.30;;;;;;;26.96;41.53;98799.81;4464415;32;33965;-62
2023/08/01 10:03:50;;;;;;;6.78;3.55;;;;;;;26.95;41.45;98789.94;4476832;32;33949;-63
2023/08/01 10:06:21;;;;;;;6.45;3.40;;;;;;;26.97;41.26;98793.25;4479933;32;33951;-66
2023/08/01 10:08:50;;;;;;;6.05;3.53;;;;;;;26.95;41.26;98785.31;4497907;31;33906;-65
2023/08/01 10:11:22;;;;;;;7.40;3.20;;;;;;;26.96;41.15;98769.69;4491153;31;33874;-65
2023/08/01 10:13:50;;;;;;;8.07;3.00;;;;;;;26.96;41.19;98773.25;4470359;32;34856;-66
2023/08/01 10:16:17;;;;;;;8.60;3.65;;;;;;;26.98;41.03;98781.19;4484279;32;33522;-66
2023/08/01 10:18:45;;;;;;;5.93;2.72;;;;;;;26.98;40.89;98778.44;4482835;32;33388;-65
2023/08/01 10:21:16;;;;;;;5.40;2.72;;;;;;;26.98;40.57;98766.69;4484116;32;34671;-65
2023/08/01 10:23:44;;;;;;;5.78;3.00;;;;;;;26.99;40.42;98763.66;4482232;32;33849;-66
2023/08/01 10:26:13;;;;;;;7.18;3.15;;;;;;;26.98;40.32;98762.03;4480886;32;33420;-66
2023/08/01 10:28:42;;;;;;;6.45;3.03;;;;;;;26.98;40.36;98762.03;4480906;32;33684;-65
2023/08/01 10:31:10;;;;;;;6.62;2.97;;;;;;;27.00;40.00;98751.63;4480150;32;34441;-67
2023/08/01 10:33:39;;;;;;;7.57;3.17;;;;;;;27.01;39.94;98760.66;4481948;32;33559;-65
2023/08/01 10:36:20;;;;;;;6.15;2.83;;;;;;;27.03;39.78;98756.53;4467876;32;33468;-66
2023/08/01 10:38:58;;;;;;;4.97;2.72;;;;;;;27.04;39.62;98746.41;4482142;32;33519;-65
2023/08/01 10:41:29;;;;;;;5.95;3.00;;;;;;;27.03;39.57;98748.31;4483890;32;34013;-64
2023/08/01 10:44:10;;;;;;;4.97;2.90;;;;;;;27.04;39.45;98744.50;4483669;32;33891;-66
2023/08/01 10:46:50;;;;;;;4.70;2.62;;;;;;;27.04;39.44;98739.00;4483872;32;33791;-66
2023/08/01 10:49:18;;;;;;;7.35;3.03;;;;;;;27.05;39.25;98737.13;4483830;32;34543;-65
2023/08/01 10:51:46;;;;;;;6.22;2.80;;;;;;;27.04;39.10;98733.53;4483703;32;34695;-66
2023/08/01 10:54:23;;;;;;;4.82;2.72;;;;;;;27.07;38.92;98732.19;4483557;32;34669;-66
2023/08/01 10:56:58;;;;;;;4.68;2.80;;;;;;;27.10;38.88;98731.66;4482888;32;33151;-63
2023/08/01 10:59:25;;;;;;;6.43;2.90;;;;;;;27.08;38.92;98720.13;4483860;32;33930;-66
2023/08/01 11:01:57;;;;;;;5.20;2.78;;;;;;;27.08;38.86;98712.75;4483776;32;33714;-64
2023/08/01 11:04:25;;;;;;;4.50;2.60;;;;;;;27.08;39.00;98715.50;4485315;32;34513;-65
2023/08/01 11:06:55;;;;;;;8.13;2.87;;;;;;;27.10;38.96;98704.28;4484897;31;34693;-64
2023/08/01 11:09:26;;;;;;;6.90;2.85;;;;;;;27.10;39.13;98705.09;4485031;32;33635;-66
2023/08/01 11:11:57;;;;;;;6.18;2.53;;;;;;;27.09;39.40;98706.22;4483501;32;33519;-66
2023/08/01 11:14:26;;;;;;;7.50;2.80;;;;;;;27.11;39.14;98700.44;4477327;32;34233;-65
2023/08/01 11:16:54;;;;;;;5.03;2.58;;;;;;;27.11;38.52;98703.19;4485516;32;33420;-66
2023/08/01 11:19:26;;;;;;;4.28;2.60;;;;;;;27.15;38.29;98693.31;4480542;32;33911;-61
2023/08/01 11:21:59;;;;;;;4.45;2.40;;;;;;;27.17;38.30;98694.66;4475587;32;35330;-65
2023/08/01 11:24:27;;;;;;;4.22;2.33;;;;;;;27.19;38.37;98686.19;4475869;31;34530;-65
2023/08/01 11:26:54;;;;;;;7.62;2.80;;;;;;;27.17;38.60;98688.38;4501158;31;33268;-62
2023/08/01 11:29:22;;;;;;;5.20;2.60;;;;;;;27.18;38.47;98677.13;4491813;31;33828;-66
2023/08/01 11:31:57;;;;;;;9.85;2.95;;;;;;;27.19;38.35;98670.56;4485244;32;33914;-66
2023/08/01 11:34:25;;;;;;;5.37;2.37;;;;;;;27.17;38.27;98670.03;4483948;32;34069;-66
2023/08/01 11:36:52;;;;;;;7.70;2.75;;;;;;;27.18;38.09;98671.66;4483949;32;33598;-68
2023/08/01 11:39:22;;;;;;;7.97;2.72;;;;;;;27.24;37.99;98664.25;4484154;32;34003;-67